sensor_id;sensor_type;location;lat;lon;timestamp;pressure;altitude;pressure_sealevel;temperature;humidity
21821;BME280;11073;48.586;12.066;2023-04-27T00:01:38;96527.53;;;9.17;56.89
21821;BME280;11073;48.586;12.066;2023-04-27T00:04:07;96525.91;;;9.16;56.82
21821;BME280;11073;48.586;12.066;2023-04-27T00:06:37;96523.66;;;9.13;56.77
21821;BME280;11073;48.586;12.066;2023-04-27T00:09:06;96523.88;;;9.11;57.02
21821;BME280;11073;48.586;12.066;2023-04-27T00:11:35;96520.81;;;9.08;56.95
21821;BME280;11073;48.586;12.066;2023-04-27T00:14:04;96519.16;;;9.07;57.30
21821;BME280;11073;48.586;12.066;2023-04-27T00:16:33;96524.81;;;9.05;57.23
21821;BME280;11073;48.586;12.066;2023-04-27T00:19:02;96525.47;;;9.01;57.14
21821;BME280;11073;48.586;12.066;2023-04-27T00:21:30;96527.78;;;8.97;57.31
21821;BME280;11073;48.586;12.066;2023-04-27T00:23:59;96528.25;;;8.94;57.42
21821;BME280;11073;48.586;12.066;2023-04-27T00:26:28;96524.13;;;8.92;57.48
21821;BME280;11073;48.586;12.066;2023-04-27T00:28:59;96523.97;;;8.87;57.56
21821;BME280;11073;48.586;12.066;2023-04-27T00:31:27;96522.75;;;8.82;57.46
21821;BME280;11073;48.586;12.066;2023-04-27T00:33:56;96523.81;;;8.81;57.55
21821;BME280;11073;48.586;12.066;2023-04-27T00:36:25;96518.19;;;8.83;57.77
21821;BME280;11073;48.586;12.066;2023-04-27T00:38:54;96521.13;;;8.81;57.68
21821;BME280;11073;48.586;12.066;2023-04-27T00:41:23;96515.13;;;8.79;57.80
21821;BME280;11073;48.586;12.066;2023-04-27T00:43:52;96519.94;;;8.77;57.83
21821;BME280;11073;48.586;12.066;2023-04-27T00:46:23;96515.19;;;8.73;58.07
21821;BME280;11073;48.586;12.066;2023-04-27T00:48:53;96526.22;;;8.71;58.13
21821;BME280;11073;48.586;12.066;2023-04-27T00:51:21;96519.19;;;8.70;58.31
21821;BME280;11073;48.586;12.066;2023-04-27T00:53:55;96513.78;;;8.70;58.49
21821;BME280;11073;48.586;12.066;2023-04-27T00:56:24;96513.91;;;8.75;58.37
21821;BME280;11073;48.586;12.066;2023-04-27T00:58:54;96512.91;;;8.76;58.50
21821;BME280;11073;48.586;12.066;2023-04-27T01:01:25;96516.19;;;8.78;58.60
21821;BME280;11073;48.586;12.066;2023-04-27T01:03:54;96513.91;;;8.75;58.58
21821;BME280;11073;48.586;12.066;2023-04-27T01:06:22;96506.28;;;8.72;58.62
21821;BME280;11073;48.586;12.066;2023-04-27T01:08:51;96506.13;;;8.67;58.88
21821;BME280;11073;48.586;12.066;2023-04-27T01:11:20;96512.97;;;8.70;58.83
21821;BME280;11073;48.586;12.066;2023-04-27T01:13:50;96504.25;;;8.68;58.92
21821;BME280;11073;48.586;12.066;2023-04-27T01:16:19;96511.75;;;8.66;59.15
21821;BME280;11073;48.586;12.066;2023-04-27T01:18:49;96511.97;;;8.64;59.12
21821;BME280;11073;48.586;12.066;2023-04-27T01:21:18;96498.91;;;8.61;59.28
21821;BME280;11073;48.586;12.066;2023-04-27T01:23:49;96496.38;;;8.66;59.19
21821;BME280;11073;48.586;12.066;2023-04-27T01:26:18;96505.91;;;8.69;59.41
21821;BME280;11073;48.586;12.066;2023-04-27T01:28:47;96502.38;;;8.68;59.50
21821;BME280;11073;48.586;12.066;2023-04-27T01:31:16;96499.66;;;8.68;59.52
21821;BME280;11073;48.586;12.066;2023-04-27T01:33:46;96504.03;;;8.69;59.52
21821;BME280;11073;48.586;12.066;2023-04-27T01:36:15;96490.97;;;8.66;59.43
21821;BME280;11073;48.586;12.066;2023-04-27T01:38:43;96493.09;;;8.64;59.48
21821;BME280;11073;48.586;12.066;2023-04-27T01:41:13;96499.97;;;8.60;59.50
21821;BME280;11073;48.586;12.066;2023-04-27T01:43:42;96503.72;;;8.59;59.67
21821;BME280;11073;48.586;12.066;2023-04-27T01:46:12;96500.44;;;8.57;59.52
21821;BME280;11073;48.586;12.066;2023-04-27T01:48:42;96494.13;;;8.45;59.83
21821;BME280;11073;48.586;12.066;2023-04-27T01:51:10;96516.69;;;8.50;59.75
21821;BME280;11073;48.586;12.066;2023-04-27T01:53:40;96500.97;;;8.47;59.87
21821;BME280;11073;48.586;12.066;2023-04-27T01:56:09;96507.53;;;8.51;59.90
21821;BME280;11073;48.586;12.066;2023-04-27T01:58:39;96511.53;;;8.49;59.91
21821;BME280;11073;48.586;12.066;2023-04-27T02:01:08;96518.19;;;8.46;59.96
21821;BME280;11073;48.586;12.066;2023-04-27T02:03:37;96513.59;;;8.47;59.95
21821;BME280;11073;48.586;12.066;2023-04-27T02:06:06;96509.06;;;8.47;59.97
21821;BME280;11073;48.586;12.066;2023-04-27T02:08:35;96512.19;;;8.44;59.98
21821;BME280;11073;48.586;12.066;2023-04-27T02:11:07;96517.00;;;8.42;59.97
21821;BME280;11073;48.586;12.066;2023-04-27T02:13:40;96520.94;;;8.40;60.20
21821;BME280;11073;48.586;12.066;2023-04-27T02:16:08;96516.81;;;8.37;60.25
21821;BME280;11073;48.586;12.066;2023-04-27T02:18:39;96524.31;;;8.35;60.30
21821;BME280;11073;48.586;12.066;2023-04-27T02:21:09;96522.81;;;8.39;60.45
21821;BME280;11073;48.586;12.066;2023-04-27T02:23:38;96523.63;;;8.40;60.33
21821;BME280;11073;48.586;12.066;2023-04-27T02:26:06;96526.13;;;8.41;60.33
21821;BME280;11073;48.586;12.066;2023-04-27T02:28:36;96525.91;;;8.43;60.34
21821;BME280;11073;48.586;12.066;2023-04-27T02:31:07;96521.63;;;8.35;60.27
21821;BME280;11073;48.586;12.066;2023-04-27T02:33:35;96518.19;;;8.21;60.39
21821;BME280;11073;48.586;12.066;2023-04-27T02:36:05;96516.09;;;8.23;60.60
21821;BME280;11073;48.586;12.066;2023-04-27T02:38:34;96519.59;;;8.24;60.46
21821;BME280;11073;48.586;12.066;2023-04-27T02:41:02;96521.25;;;8.25;60.52
21821;BME280;11073;48.586;12.066;2023-04-27T02:43:33;96519.66;;;8.17;60.61
21821;BME280;11073;48.586;12.066;2023-04-27T02:46:04;96516.59;;;8.14;60.80
21821;BME280;11073;48.586;12.066;2023-04-27T02:48:35;96528.38;;;8.19;60.79
21821;BME280;11073;48.586;12.066;2023-04-27T02:51:04;96526.28;;;8.21;60.72
21821;BME280;11073;48.586;12.066;2023-04-27T02:53:34;96529.56;;;8.23;60.83
21821;BME280;11073;48.586;12.066;2023-04-27T02:56:03;96525.63;;;8.26;60.77
21821;BME280;11073;48.586;12.066;2023-04-27T02:58:32;96528.53;;;8.24;60.64
21821;BME280;11073;48.586;12.066;2023-04-27T03:01:01;96525.00;;;8.24;60.74
21821;BME280;11073;48.586;12.066;2023-04-27T03:03:30;96529.81;;;8.22;60.82
21821;BME280;11073;48.586;12.066;2023-04-27T03:06:00;96524.63;;;8.20;60.72
21821;BME280;11073;48.586;12.066;2023-04-27T03:08:31;96525.06;;;8.17;60.70
21821;BME280;11073;48.586;12.066;2023-04-27T03:10:59;96528.22;;;8.14;60.85
21821;BME280;11073;48.586;12.066;2023-04-27T03:13:28;96525.88;;;8.18;60.73
21821;BME280;11073;48.586;12.066;2023-04-27T03:15:58;96531.50;;;8.16;60.83
21821;BME280;11073;48.586;12.066;2023-04-27T03:18:28;96528.81;;;8.16;60.60
21821;BME280;11073;48.586;12.066;2023-04-27T03:21:05;96525.06;;;8.17;60.63
21821;BME280;11073;48.586;12.066;2023-04-27T03:23:35;96524.25;;;8.17;60.75
21821;BME280;11073;48.586;12.066;2023-04-27T03:26:05;96529.25;;;8.13;60.78
21821;BME280;11073;48.586;12.066;2023-04-27T03:28:35;96523.47;;;8.10;60.62
21821;BME280;11073;48.586;12.066;2023-04-27T03:31:04;96530.97;;;8.08;60.89
21821;BME280;11073;48.586;12.066;2023-04-27T03:33:33;96537.63;;;8.05;60.84
21821;BME280;11073;48.586;12.066;2023-04-27T03:36:05;96527.91;;;8.04;60.66
21821;BME280;11073;48.586;12.066;2023-04-27T03:38:34;96529.97;;;8.02;60.84
21821;BME280;11073;48.586;12.066;2023-04-27T03:41:03;96528.59;;;7.93;60.73
21821;BME280;11073;48.586;12.066;2023-04-27T03:43:32;96536.91;;;7.91;60.99
21821;BME280;11073;48.586;12.066;2023-04-27T03:46:02;96534.44;;;7.90;60.96
21821;BME280;11073;48.586;12.066;2023-04-27T03:48:31;96535.69;;;7.87;61.02
21821;BME280;11073;48.586;12.066;2023-04-27T03:51:00;96538.16;;;7.89;61.10
21821;BME280;11073;48.586;12.066;2023-04-27T03:53:30;96537.56;;;7.87;61.10
21821;BME280;11073;48.586;12.066;2023-04-27T03:56:01;96543.53;;;7.89;60.90
21821;BME280;11073;48.586;12.066;2023-04-27T03:58:30;96548.94;;;7.89;60.88
21821;BME280;11073;48.586;12.066;2023-04-27T04:01:07;96551.47;;;7.84;60.88
21821;BME280;11073;48.586;12.066;2023-04-27T04:03:38;96550.03;;;7.81;60.94
21821;BME280;11073;48.586;12.066;2023-04-27T04:06:08;96555.41;;;7.81;60.98
21821;BME280;11073;48.586;12.066;2023-04-27T04:08:37;96553.56;;;7.82;61.04
21821;BME280;11073;48.586;12.066;2023-04-27T04:11:06;96550.03;;;7.81;61.04
21821;BME280;11073;48.586;12.066;2023-04-27T04:13:37;96557.75;;;7.78;60.96
21821;BME280;11073;48.586;12.066;2023-04-27T04:16:07;96560.94;;;7.68;61.07
21821;BME280;11073;48.586;12.066;2023-04-27T04:18:36;96570.25;;;7.65;60.95
21821;BME280;11073;48.586;12.066;2023-04-27T04:21:05;96570.25;;;7.65;61.15
21821;BME280;11073;48.586;12.066;2023-04-27T04:23:33;96569.44;;;7.65;61.11
21821;BME280;11073;48.586;12.066;2023-04-27T04:26:03;96582.91;;;7.65;61.22
21821;BME280;11073;48.586;12.066;2023-04-27T04:28:34;96577.69;;;7.70;61.24
21821;BME280;11073;48.586;12.066;2023-04-27T04:31:03;96577.25;;;7.73;61.04
21821;BME280;11073;48.586;12.066;2023-04-27T04:33:32;96586.78;;;7.76;61.02
21821;BME280;11073;48.586;12.066;2023-04-27T04:36:02;96582.63;;;7.73;60.88
21821;BME280;11073;48.586;12.066;2023-04-27T04:38:32;96585.56;;;7.71;60.97
21821;BME280;11073;48.586;12.066;2023-04-27T04:41:01;96585.78;;;7.70;60.81
21821;BME280;11073;48.586;12.066;2023-04-27T04:43:33;96595.09;;;7.67;60.90
21821;BME280;11073;48.586;12.066;2023-04-27T04:46:04;96578.41;;;7.52;60.90
21821;BME280;11073;48.586;12.066;2023-04-27T04:48:33;96593.91;;;7.63;60.92
21821;BME280;11073;48.586;12.066;2023-04-27T04:51:03;96598.66;;;7.68;60.86
21821;BME280;11073;48.586;12.066;2023-04-27T04:53:34;96602.56;;;7.72;60.97
21821;BME280;11073;48.586;12.066;2023-04-27T04:56:09;96601.28;;;7.74;60.81
21821;BME280;11073;48.586;12.066;2023-04-27T04:58:39;96600.25;;;7.76;60.82
21821;BME280;11073;48.586;12.066;2023-04-27T05:01:08;96602.97;;;7.76;60.94
21821;BME280;11073;48.586;12.066;2023-04-27T05:03:37;96602.50;;;7.79;60.99
21821;BME280;11073;48.586;12.066;2023-04-27T05:06:06;96599.38;;;7.82;60.87
21821;BME280;11073;48.586;12.066;2023-04-27T05:08:35;96595.66;;;7.83;60.89
21821;BME280;11073;48.586;12.066;2023-04-27T05:11:03;96604.53;;;7.90;60.94
21821;BME280;11073;48.586;12.066;2023-04-27T05:13:32;96607.38;;;7.95;60.69
21821;BME280;11073;48.586;12.066;2023-04-27T05:16:04;96601.34;;;7.99;60.70
21821;BME280;11073;48.586;12.066;2023-04-27T05:18:53;96603.81;;;8.01;60.72
21821;BME280;11073;48.586;12.066;2023-04-27T05:21:22;96604.63;;;8.01;60.81
21821;BME280;11073;48.586;12.066;2023-04-27T05:23:50;96614.38;;;8.02;60.57
21821;BME280;11073;48.586;12.066;2023-04-27T05:26:18;96610.44;;;8.05;60.73
21821;BME280;11073;48.586;12.066;2023-04-27T05:28:47;96603.31;;;8.11;60.58
21821;BME280;11073;48.586;12.066;2023-04-27T05:31:18;96611.00;;;8.14;60.76
21821;BME280;11073;48.586;12.066;2023-04-27T05:33:46;96608.66;;;8.17;60.75
21821;BME280;11073;48.586;12.066;2023-04-27T05:36:15;96611.75;;;8.21;60.48
21821;BME280;11073;48.586;12.066;2023-04-27T05:38:44;96608.38;;;8.25;60.43
21821;BME280;11073;48.586;12.066;2023-04-27T05:41:13;96612.31;;;8.29;60.51
21821;BME280;11073;48.586;12.066;2023-04-27T05:43:41;96609.25;;;8.26;60.44
21821;BME280;11073;48.586;12.066;2023-04-27T05:46:12;96614.16;;;8.36;60.43
21821;BME280;11073;48.586;12.066;2023-04-27T05:48:42;96616.22;;;8.40;60.45
21821;BME280;11073;48.586;12.066;2023-04-27T05:51:10;96618.41;;;8.50;60.35
21821;BME280;11073;48.586;12.066;2023-04-27T05:53:39;96620.22;;;8.56;60.10
21821;BME280;11073;48.586;12.066;2023-04-27T05:56:08;96621.00;;;8.63;60.09
21821;BME280;11073;48.586;12.066;2023-04-27T05:58:38;96622.44;;;8.84;61.83
21821;BME280;11073;48.586;12.066;2023-04-27T06:01:07;96629.91;;;9.07;60.90
21821;BME280;11073;48.586;12.066;2023-04-27T06:03:35;96630.94;;;9.06;60.34
21821;BME280;11073;48.586;12.066;2023-04-27T06:06:06;96623.44;;;9.08;60.30
21821;BME280;11073;48.586;12.066;2023-04-27T06:08:34;96628.44;;;9.04;60.16
21821;BME280;11073;48.586;12.066;2023-04-27T06:11:04;96629.06;;;9.06;59.95
21821;BME280;11073;48.586;12.066;2023-04-27T06:13:32;96631.31;;;9.09;59.79
21821;BME280;11073;48.586;12.066;2023-04-27T06:16:01;96633.34;;;9.14;59.65
21821;BME280;11073;48.586;12.066;2023-04-27T06:18:30;96641.59;;;9.19;59.77
21821;BME280;11073;48.586;12.066;2023-04-27T06:20:58;96636.50;;;9.29;59.45
21821;BME280;11073;48.586;12.066;2023-04-27T06:23:30;96629.16;;;9.36;59.06
21821;BME280;11073;48.586;12.066;2023-04-27T06:25:59;96635.72;;;9.40;58.85
21821;BME280;11073;48.586;12.066;2023-04-27T06:28:29;96633.78;;;9.48;58.80
21821;BME280;11073;48.586;12.066;2023-04-27T06:30:57;96633.25;;;9.57;58.76
21821;BME280;11073;48.586;12.066;2023-04-27T06:33:25;96637.13;;;9.61;58.13
21821;BME280;11073;48.586;12.066;2023-04-27T06:35:54;96643.97;;;9.64;58.08
21821;BME280;11073;48.586;12.066;2023-04-27T06:38:22;96641.19;;;9.71;57.92
21821;BME280;11073;48.586;12.066;2023-04-27T06:40:52;96648.69;;;9.68;57.82
21821;BME280;11073;48.586;12.066;2023-04-27T06:43:21;96642.59;;;9.73;57.78
21821;BME280;11073;48.586;12.066;2023-04-27T06:45:50;96641.31;;;9.76;57.81
21821;BME280;11073;48.586;12.066;2023-04-27T06:48:18;96645.56;;;9.83;57.75
21821;BME280;11073;48.586;12.066;2023-04-27T06:50:47;96646.63;;;9.82;57.68
21821;BME280;11073;48.586;12.066;2023-04-27T06:53:16;96651.47;;;9.80;57.57
21821;BME280;11073;48.586;12.066;2023-04-27T06:55:44;96654.31;;;9.85;57.24
21821;BME280;11073;48.586;12.066;2023-04-27T06:58:16;96657.50;;;9.94;57.23
21821;BME280;11073;48.586;12.066;2023-04-27T07:00:44;96662.59;;;10.02;57.03
21821;BME280;11073;48.586;12.066;2023-04-27T07:03:13;96648.59;;;10.05;56.96
21821;BME280;11073;48.586;12.066;2023-04-27T07:05:41;96660.97;;;10.13;56.64
21821;BME280;11073;48.586;12.066;2023-04-27T07:08:11;96662.94;;;10.24;56.49
21821;BME280;11073;48.586;12.066;2023-04-27T07:10:40;96660.38;;;10.29;56.53
21821;BME280;11073;48.586;12.066;2023-04-27T07:13:09;96669.22;;;10.36;56.09
21821;BME280;11073;48.586;12.066;2023-04-27T07:15:40;96657.91;;;10.39;55.71
21821;BME280;11073;48.586;12.066;2023-04-27T07:18:09;96664.19;;;10.52;55.36
21821;BME280;11073;48.586;12.066;2023-04-27T07:20:39;96652.53;;;10.63;55.07
21821;BME280;11073;48.586;12.066;2023-04-27T07:23:08;96653.38;;;10.75;54.33
21821;BME280;11073;48.586;12.066;2023-04-27T07:25:36;96629.34;;;10.78;54.20
21821;BME280;11073;48.586;12.066;2023-04-27T07:28:06;96658.34;;;11.01;53.39
21821;BME280;11073;48.586;12.066;2023-04-27T07:30:35;96655.53;;;11.08;53.47
21821;BME280;11073;48.586;12.066;2023-04-27T07:33:05;96660.69;;;11.21;53.29
21821;BME280;11073;48.586;12.066;2023-04-27T07:35:34;96659.97;;;11.26;52.71
21821;BME280;11073;48.586;12.066;2023-04-27T07:38:03;96663.25;;;11.40;52.60
21821;BME280;11073;48.586;12.066;2023-04-27T07:40:32;96654.63;;;11.54;52.46
21821;BME280;11073;48.586;12.066;2023-04-27T07:43:01;96649.41;;;11.65;52.12
21821;BME280;11073;48.586;12.066;2023-04-27T07:45:30;96663.25;;;11.80;51.84
21821;BME280;11073;48.586;12.066;2023-04-27T07:47:59;96661.50;;;11.85;51.40
21821;BME280;11073;48.586;12.066;2023-04-27T07:50:30;96656.44;;;11.89;51.29
21821;BME280;11073;48.586;12.066;2023-04-27T07:52:59;96659.84;;;11.96;50.98
21821;BME280;11073;48.586;12.066;2023-04-27T07:55:28;96669.72;;;12.02;51.17
21821;BME280;11073;48.586;12.066;2023-04-27T07:57:57;96670.03;;;12.18;50.83
21821;BME280;11073;48.586;12.066;2023-04-27T08:00:26;96660.72;;;12.30;51.01
21821;BME280;11073;48.586;12.066;2023-04-27T08:02:54;96671.53;;;12.42;50.34
21821;BME280;11073;48.586;12.066;2023-04-27T08:05:24;96657.72;;;12.43;50.39
21821;BME280;11073;48.586;12.066;2023-04-27T08:07:54;96657.38;;;12.40;50.00
21821;BME280;11073;48.586;12.066;2023-04-27T08:10:23;96663.56;;;12.52;49.55
21821;BME280;11073;48.586;12.066;2023-04-27T08:12:52;96667.03;;;12.64;49.62
21821;BME280;11073;48.586;12.066;2023-04-27T08:15:20;96662.50;;;12.70;49.49
21821;BME280;11073;48.586;12.066;2023-04-27T08:17:49;96666.72;;;12.78;48.98
21821;BME280;11073;48.586;12.066;2023-04-27T08:20:17;96667.19;;;12.75;48.86
21821;BME280;11073;48.586;12.066;2023-04-27T08:22:46;96671.66;;;12.81;48.56
21821;BME280;11073;48.586;12.066;2023-04-27T08:25:15;96664.16;;;12.88;48.15
21821;BME280;11073;48.586;12.066;2023-04-27T08:27:44;96670.84;;;12.97;48.09
21821;BME280;11073;48.586;12.066;2023-04-27T08:30:13;96673.03;;;13.00;47.62
21821;BME280;11073;48.586;12.066;2023-04-27T08:32:41;96658.56;;;12.94;46.96
21821;BME280;11073;48.586;12.066;2023-04-27T08:35:09;96669.25;;;13.01;46.33
21821;BME280;11073;48.586;12.066;2023-04-27T08:37:38;96674.66;;;13.18;45.88
21821;BME280;11073;48.586;12.066;2023-04-27T08:40:08;96675.16;;;13.32;45.47
21821;BME280;11073;48.586;12.066;2023-04-27T08:42:41;96675.97;;;13.49;45.27
21821;BME280;11073;48.586;12.066;2023-04-27T08:45:21;96681.22;;;13.56;44.59
21821;BME280;11073;48.586;12.066;2023-04-27T08:47:49;96677.00;;;13.65;44.16
21821;BME280;11073;48.586;12.066;2023-04-27T08:50:18;96683.81;;;13.67;43.77
21821;BME280;11073;48.586;12.066;2023-04-27T08:52:48;96686.72;;;13.83;43.21
21821;BME280;11073;48.586;12.066;2023-04-27T08:55:16;96679.38;;;13.83;42.79
21821;BME280;11073;48.586;12.066;2023-04-27T08:58:04;96679.91;;;14.02;42.58
21821;BME280;11073;48.586;12.066;2023-04-27T09:00:37;96681.34;;;14.10;42.34
21821;BME280;11073;48.586;12.066;2023-04-27T09:03:06;96682.09;;;14.27;42.18
21821;BME280;11073;48.586;12.066;2023-04-27T09:05:35;96682.72;;;14.34;41.86
21821;BME280;11073;48.586;12.066;2023-04-27T09:08:12;96682.97;;;14.32;41.59
21821;BME280;11073;48.586;12.066;2023-04-27T09:10:44;96680.75;;;14.29;41.09
21821;BME280;11073;48.586;12.066;2023-04-27T09:13:14;96684.03;;;14.31;40.55
21821;BME280;11073;48.586;12.066;2023-04-27T09:15:45;96670.94;;;14.28;40.06
21821;BME280;11073;48.586;12.066;2023-04-27T09:18:15;96681.50;;;14.47;40.12
21821;BME280;11073;48.586;12.066;2023-04-27T09:20:47;96676.25;;;14.67;39.92
21821;BME280;11073;48.586;12.066;2023-04-27T09:23:26;96678.34;;;14.87;39.49
21821;BME280;11073;48.586;12.066;2023-04-27T09:25:55;96670.44;;;14.90;39.15
21821;BME280;11073;48.586;12.066;2023-04-27T09:28:26;96676.28;;;15.04;38.72
21821;BME280;11073;48.586;12.066;2023-04-27T09:30:56;96674.47;;;15.20;39.01
21821;BME280;11073;48.586;12.066;2023-04-27T09:33:26;96674.31;;;15.32;38.37
21821;BME280;11073;48.586;12.066;2023-04-27T09:35:57;96676.53;;;15.40;38.02
21821;BME280;11073;48.586;12.066;2023-04-27T09:38:26;96674.44;;;15.52;37.85
21821;BME280;11073;48.586;12.066;2023-04-27T09:40:55;96670.44;;;15.65;37.53
21821;BME280;11073;48.586;12.066;2023-04-27T09:43:23;96672.63;;;15.68;36.88
21821;BME280;11073;48.586;12.066;2023-04-27T09:45:55;96668.31;;;15.77;36.48
21821;BME280;11073;48.586;12.066;2023-04-27T09:48:24;96665.63;;;15.92;36.27
21821;BME280;11073;48.586;12.066;2023-04-27T09:50:53;96652.00;;;15.97;35.85
21821;BME280;11073;48.586;12.066;2023-04-27T09:53:24;96665.69;;;16.03;35.79
21821;BME280;11073;48.586;12.066;2023-04-27T09:56:07;96670.09;;;16.09;35.68
21821;BME280;11073;48.586;12.066;2023-04-27T09:58:58;96661.09;;;16.18;35.34
21821;BME280;11073;48.586;12.066;2023-04-27T10:01:38;96659.19;;;16.29;34.82
21821;BME280;11073;48.586;12.066;2023-04-27T10:04:29;96665.44;;;16.14;34.81
21821;BME280;11073;48.586;12.066;2023-04-27T10:07:05;96663.06;;;16.48;34.77
21821;BME280;11073;48.586;12.066;2023-04-27T10:09:35;96649.50;;;16.74;34.38
21821;BME280;11073;48.586;12.066;2023-04-27T10:12:16;96656.28;;;17.27;34.16
21821;BME280;11073;48.586;12.066;2023-04-27T10:14:52;96652.16;;;17.30;33.57
21821;BME280;11073;48.586;12.066;2023-04-27T10:17:29;96651.56;;;17.58;33.29
21821;BME280;11073;48.586;12.066;2023-04-27T10:19:58;96649.59;;;17.84;33.43
21821;BME280;11073;48.586;12.066;2023-04-27T10:22:37;96644.38;;;17.88;33.22
21821;BME280;11073;48.586;12.066;2023-04-27T10:25:15;96643.47;;;18.13;33.20
21821;BME280;11073;48.586;12.066;2023-04-27T10:27:48;96649.66;;;18.34;32.96
21821;BME280;11073;48.586;12.066;2023-04-27T10:30:19;96637.41;;;18.60;32.69
21821;BME280;11073;48.586;12.066;2023-04-27T10:32:53;96638.72;;;18.73;32.52
21821;BME280;11073;48.586;12.066;2023-04-27T10:35:32;96640.34;;;18.30;32.15
21821;BME280;11073;48.586;12.066;2023-04-27T10:38:05;96635.25;;;18.03;31.62
21821;BME280;11073;48.586;12.066;2023-04-27T10:40:35;96630.59;;;18.08;31.82
21821;BME280;11073;48.586;12.066;2023-04-27T10:43:08;96631.84;;;17.72;31.25
21821;BME280;11073;48.586;12.066;2023-04-27T10:45:37;96630.00;;;17.42;31.58
21821;BME280;11073;48.586;12.066;2023-04-27T10:48:09;96629.50;;;17.19;31.54
21821;BME280;11073;48.586;12.066;2023-04-27T10:50:43;96632.78;;;17.06;31.61
21821;BME280;11073;48.586;12.066;2023-04-27T10:53:13;96629.75;;;17.33;31.91
21821;BME280;11073;48.586;12.066;2023-04-27T10:55:42;96629.09;;;17.77;31.73
21821;BME280;11073;48.586;12.066;2023-04-27T10:58:10;96631.81;;;18.36;31.98
21821;BME280;11073;48.586;12.066;2023-04-27T11:00:40;96625.44;;;18.90;32.03
21821;BME280;11073;48.586;12.066;2023-04-27T11:03:14;96626.94;;;19.36;31.88
21821;BME280;11073;48.586;12.066;2023-04-27T11:05:46;96622.81;;;19.62;31.90
21821;BME280;11073;48.586;12.066;2023-04-27T11:08:16;96623.41;;;19.59;30.88
21821;BME280;11073;48.586;12.066;2023-04-27T11:10:49;96629.88;;;19.68;31.21
21821;BME280;11073;48.586;12.066;2023-04-27T11:13:21;96620.06;;;19.33;31.43
21821;BME280;11073;48.586;12.066;2023-04-27T11:15:51;96621.16;;;19.08;31.20
21821;BME280;11073;48.586;12.066;2023-04-27T11:18:24;96628.22;;;19.14;31.50
21821;BME280;11073;48.586;12.066;2023-04-27T11:21:05;96632.56;;;19.20;31.40
21821;BME280;11073;48.586;12.066;2023-04-27T11:23:35;96632.78;;;18.95;31.65
21821;BME280;11073;48.586;12.066;2023-04-27T11:26:08;96641.91;;;19.48;31.53
21821;BME280;11073;48.586;12.066;2023-04-27T11:28:37;96637.59;;;19.66;31.47
21821;BME280;11073;48.586;12.066;2023-04-27T11:31:06;96613.53;;;19.82;30.83
21821;BME280;11073;48.586;12.066;2023-04-27T11:33:37;96623.38;;;20.07;30.94
21821;BME280;11073;48.586;12.066;2023-04-27T11:36:16;96629.13;;;19.87;30.41
21821;BME280;11073;48.586;12.066;2023-04-27T11:38:46;96632.53;;;20.21;30.95
21821;BME280;11073;48.586;12.066;2023-04-27T11:41:16;96636.97;;;20.17;30.11
21821;BME280;11073;48.586;12.066;2023-04-27T11:43:44;96627.22;;;20.06;29.70
21821;BME280;11073;48.586;12.066;2023-04-27T11:46:19;96634.44;;;20.45;29.74
21821;BME280;11073;48.586;12.066;2023-04-27T11:48:49;96635.81;;;20.42;29.36
21821;BME280;11073;48.586;12.066;2023-04-27T11:51:18;96637.19;;;20.02;28.77
21821;BME280;11073;48.586;12.066;2023-04-27T11:53:46;96624.00;;;19.27;29.04
21821;BME280;11073;48.586;12.066;2023-04-27T11:56:17;96636.66;;;18.89;29.73
21821;BME280;11073;48.586;12.066;2023-04-27T11:58:46;96635.78;;;18.98;29.85
21821;BME280;11073;48.586;12.066;2023-04-27T12:01:15;96636.94;;;19.21;30.28
21821;BME280;11073;48.586;12.066;2023-04-27T12:04:02;96628.78;;;19.40;29.87
21821;BME280;11073;48.586;12.066;2023-04-27T12:06:32;96630.53;;;19.84;30.06
21821;BME280;11073;48.586;12.066;2023-04-27T12:09:01;96630.38;;;20.18;29.56
21821;BME280;11073;48.586;12.066;2023-04-27T12:11:31;96630.53;;;20.83;29.40
21821;BME280;11073;48.586;12.066;2023-04-27T12:14:01;96638.63;;;21.26;29.09
21821;BME280;11073;48.586;12.066;2023-04-27T12:16:29;96639.66;;;21.77;28.47
21821;BME280;11073;48.586;12.066;2023-04-27T12:18:58;96637.44;;;22.20;28.44
21821;BME280;11073;48.586;12.066;2023-04-27T12:21:28;96645.34;;;22.49;27.59
21821;BME280;11073;48.586;12.066;2023-04-27T12:23:58;96641.13;;;22.65;27.93
21821;BME280;11073;48.586;12.066;2023-04-27T12:26:27;96645.50;;;23.02;27.79
21821;BME280;11073;48.586;12.066;2023-04-27T12:28:57;96652.03;;;23.29;27.53
21821;BME280;11073;48.586;12.066;2023-04-27T12:31:26;96643.53;;;23.48;27.36
21821;BME280;11073;48.586;12.066;2023-04-27T12:33:54;96639.47;;;23.23;26.51
21821;BME280;11073;48.586;12.066;2023-04-27T12:36:23;96628.91;;;22.80;26.27
21821;BME280;11073;48.586;12.066;2023-04-27T12:38:57;96628.91;;;22.80;26.31
21821;BME280;11073;48.586;12.066;2023-04-27T12:41:26;96628.56;;;22.95;26.49
21821;BME280;11073;48.586;12.066;2023-04-27T12:43:55;96632.06;;;22.87;26.45
21821;BME280;11073;48.586;12.066;2023-04-27T12:46:24;96630.66;;;23.12;26.15
21821;BME280;11073;48.586;12.066;2023-04-27T12:48:54;96635.38;;;23.43;26.34
21821;BME280;11073;48.586;12.066;2023-04-27T12:51:24;96643.16;;;23.63;25.82
21821;BME280;11073;48.586;12.066;2023-04-27T12:53:56;96630.91;;;23.55;25.64
21821;BME280;11073;48.586;12.066;2023-04-27T12:56:27;96631.97;;;23.46;25.51
21821;BME280;11073;48.586;12.066;2023-04-27T12:58:56;96633.13;;;23.22;25.54
21821;BME280;11073;48.586;12.066;2023-04-27T13:01:26;96622.59;;;23.02;25.66
21821;BME280;11073;48.586;12.066;2023-04-27T13:03:57;96615.72;;;23.13;25.65
21821;BME280;11073;48.586;12.066;2023-04-27T13:06:28;96619.94;;;23.42;25.72
21821;BME280;11073;48.586;12.066;2023-04-27T13:08:59;96615.13;;;23.02;25.21
21821;BME280;11073;48.586;12.066;2023-04-27T13:11:29;96612.19;;;22.99;25.76